Portada
METAR-TAF:

METAR-TAF

Aeroports :

Amman-Queen Alia, Jordània

latitud: 31-40N, longitud: 035-58E, altitud: 721 m

Observació

L'informe es va fer fa 29 minuts, a les 18:00 UTC
Vent 7 kt del Oest/Nord-Oest
Temperatura 26°C
Humitat 61%
Pressió 1010 hPa
Visibilitat: 7000 m

METAR: OJAI 111800Z 29007KT 7000 NSC 26/18 Q1010 NOSIG

Hora: 21:29 (18:29 UTC)

Pronòstic

L'informe es va fer fa 1 hora i 38 minuts, a les 16:51 UTC
Pronòstic vàlid del 11 a les 18 UTC al 12 a les 24 UTC
Vent 10 kt del Oest
Visibilitat: 7000 m
Evolucionant progressivament
l' 12 a les 06 UTC al 12 a les 08 UTC
Visibilitat: 5000 m
Escasses núvols a una alçada de 3000 ft
calitja
Probabilitat 40% :
Temporalment
l' 12 a les 11 UTC al 12 a les 17 UTC
Vent 20 kt del Oest/Nord-Oest
Visibilitat: 4000 m
torb alta de pols

TAF: OJAI 111651Z 1118/1224 28010KT 7000 NSC BECMG 1206/1208 5000 HZ FEW030 PROB40 TEMPO 1211/1217 30020KT 4000 BLDU

Observacions i pronòstics meteorològics de més de 4000 aeroports (METAR i TAF).

Les estacions disponibles són els punts grocs i vermells al mapa.

Posi el ratolí al punt desitjat per veure el nom de l'estació.

Feu clic per veure les observacions i els pronòstics meteorològics.

Per canviar el mapa: feu clic els botons verds amb una creu de color negre per apropar; al botó verd amb un guió per allunyar la imatge; o en les fletxes verdes per a mapes adjacents.


METAR-TAF: